sensor_id;sensor_type;location;lat;lon;timestamp;P1;durP1;ratioP1;P2;durP2;ratioP2
13303;SDS011;6720;51.958;4.540;2023-07-20T00:01:12;15.30;;;11.00;;
13303;SDS011;6720;51.958;4.540;2023-07-20T00:03:37;12.40;;;9.83;;
13303;SDS011;6720;51.958;4.540;2023-07-20T00:06:03;13.80;;;10.93;;
13303;SDS011;6720;51.958;4.540;2023-07-20T00:08:29;14.50;;;10.70;;
13303;SDS011;6720;51.958;4.540;2023-07-20T00:11:11;13.77;;;11.43;;
13303;SDS011;6720;51.958;4.540;2023-07-20T00:13:47;15.50;;;12.53;;
13303;SDS011;6720;51.958;4.540;2023-07-20T00:16:13;14.40;;;12.20;;
13303;SDS011;6720;51.958;4.540;2023-07-20T00:18:38;12.13;;;10.87;;
13303;SDS011;6720;51.958;4.540;2023-07-20T00:21:03;14.13;;;11.53;;
13303;SDS011;6720;51.958;4.540;2023-07-20T00:23:29;13.87;;;11.53;;
13303;SDS011;6720;51.958;4.540;2023-07-20T00:25:54;16.27;;;12.80;;
13303;SDS011;6720;51.958;4.540;2023-07-20T00:28:20;16.20;;;12.17;;
13303;SDS011;6720;51.958;4.540;2023-07-20T00:30:45;17.77;;;15.87;;
13303;SDS011;6720;51.958;4.540;2023-07-20T00:33:11;14.27;;;11.87;;
13303;SDS011;6720;51.958;4.540;2023-07-20T00:35:40;14.70;;;13.20;;
13303;SDS011;6720;51.958;4.540;2023-07-20T00:38:06;15.97;;;13.80;;
13303;SDS011;6720;51.958;4.540;2023-07-20T00:40:37;13.03;;;11.60;;
13303;SDS011;6720;51.958;4.540;2023-07-20T00:43:03;13.23;;;11.50;;
13303;SDS011;6720;51.958;4.540;2023-07-20T00:45:29;16.17;;;12.43;;
13303;SDS011;6720;51.958;4.540;2023-07-20T00:47:56;13.10;;;11.67;;
13303;SDS011;6720;51.958;4.540;2023-07-20T00:50:22;12.47;;;10.07;;
13303;SDS011;6720;51.958;4.540;2023-07-20T00:52:49;12.60;;;10.50;;
13303;SDS011;6720;51.958;4.540;2023-07-20T00:55:14;12.97;;;11.60;;
13303;SDS011;6720;51.958;4.540;2023-07-20T00:57:40;15.60;;;13.10;;
13303;SDS011;6720;51.958;4.540;2023-07-20T01:00:06;10.97;;;9.53;;
13303;SDS011;6720;51.958;4.540;2023-07-20T01:02:32;10.23;;;9.23;;
13303;SDS011;6720;51.958;4.540;2023-07-20T01:04:58;12.30;;;10.17;;
13303;SDS011;6720;51.958;4.540;2023-07-20T01:07:28;11.23;;;9.53;;
13303;SDS011;6720;51.958;4.540;2023-07-20T01:10:03;8.70;;;7.90;;
13303;SDS011;6720;51.958;4.540;2023-07-20T01:12:41;9.03;;;7.73;;
13303;SDS011;6720;51.958;4.540;2023-07-20T01:15:08;9.83;;;8.67;;
13303;SDS011;6720;51.958;4.540;2023-07-20T01:17:38;10.87;;;9.77;;
13303;SDS011;6720;51.958;4.540;2023-07-20T01:20:03;10.43;;;9.40;;
13303;SDS011;6720;51.958;4.540;2023-07-20T01:22:48;10.80;;;9.13;;
13303;SDS011;6720;51.958;4.540;2023-07-20T01:31:42;11.67;;;10.20;;
13303;SDS011;6720;51.958;4.540;2023-07-20T01:33:54;9.33;;;8.43;;
13303;SDS011;6720;51.958;4.540;2023-07-20T01:36:26;8.57;;;7.67;;
13303;SDS011;6720;51.958;4.540;2023-07-20T01:38:55;12.47;;;8.10;;
13303;SDS011;6720;51.958;4.540;2023-07-20T01:41:21;7.47;;;6.67;;
13303;SDS011;6720;51.958;4.540;2023-07-20T01:43:47;9.17;;;6.97;;
13303;SDS011;6720;51.958;4.540;2023-07-20T01:46:12;7.93;;;6.37;;
13303;SDS011;6720;51.958;4.540;2023-07-20T01:48:38;18.87;;;13.33;;
13303;SDS011;6720;51.958;4.540;2023-07-20T01:51:03;9.13;;;7.30;;
13303;SDS011;6720;51.958;4.540;2023-07-20T01:53:29;9.67;;;7.10;;
13303;SDS011;6720;51.958;4.540;2023-07-20T01:55:54;9.43;;;7.60;;
13303;SDS011;6720;51.958;4.540;2023-07-20T01:58:20;6.73;;;6.10;;
13303;SDS011;6720;51.958;4.540;2023-07-20T02:00:45;8.50;;;7.67;;
13303;SDS011;6720;51.958;4.540;2023-07-20T02:03:11;8.43;;;7.63;;
13303;SDS011;6720;51.958;4.540;2023-07-20T02:05:40;7.00;;;6.40;;
13303;SDS011;6720;51.958;4.540;2023-07-20T02:08:07;10.87;;;6.57;;
13303;SDS011;6720;51.958;4.540;2023-07-20T02:10:32;8.33;;;6.27;;
13303;SDS011;6720;51.958;4.540;2023-07-20T02:12:58;8.50;;;6.57;;
13303;SDS011;6720;51.958;4.540;2023-07-20T02:15:23;9.30;;;7.50;;
13303;SDS011;6720;51.958;4.540;2023-07-20T02:17:49;10.37;;;9.00;;
13303;SDS011;6720;51.958;4.540;2023-07-20T02:20:14;9.43;;;7.70;;
13303;SDS011;6720;51.958;4.540;2023-07-20T02:22:40;12.40;;;7.93;;
13303;SDS011;6720;51.958;4.540;2023-07-20T02:25:05;10.57;;;8.40;;
13303;SDS011;6720;51.958;4.540;2023-07-20T02:27:32;9.80;;;8.10;;
13303;SDS011;6720;51.958;4.540;2023-07-20T02:29:58;10.07;;;8.27;;
13303;SDS011;6720;51.958;4.540;2023-07-20T02:32:24;6.57;;;5.80;;
13303;SDS011;6720;51.958;4.540;2023-07-20T02:34:49;7.33;;;6.63;;
13303;SDS011;6720;51.958;4.540;2023-07-20T02:37:15;7.27;;;5.90;;
13303;SDS011;6720;51.958;4.540;2023-07-20T02:39:42;7.17;;;6.47;;
13303;SDS011;6720;51.958;4.540;2023-07-20T02:42:07;6.47;;;5.87;;
13303;SDS011;6720;51.958;4.540;2023-07-20T02:44:32;7.33;;;6.63;;
13303;SDS011;6720;51.958;4.540;2023-07-20T02:46:58;5.87;;;5.23;;
13303;SDS011;6720;51.958;4.540;2023-07-20T02:49:23;9.13;;;6.40;;
13303;SDS011;6720;51.958;4.540;2023-07-20T02:51:49;7.77;;;5.77;;
13303;SDS011;6720;51.958;4.540;2023-07-20T02:54:14;7.13;;;5.83;;
13303;SDS011;6720;51.958;4.540;2023-07-20T02:56:40;9.53;;;7.10;;
13303;SDS011;6720;51.958;4.540;2023-07-20T02:59:05;9.77;;;6.97;;
13303;SDS011;6720;51.958;4.540;2023-07-20T03:01:31;9.20;;;8.13;;
13303;SDS011;6720;51.958;4.540;2023-07-20T03:03:56;8.63;;;7.13;;
13303;SDS011;6720;51.958;4.540;2023-07-20T03:06:21;9.70;;;6.60;;
13303;SDS011;6720;51.958;4.540;2023-07-20T03:08:47;9.47;;;8.10;;
13303;SDS011;6720;51.958;4.540;2023-07-20T03:11:16;10.23;;;8.13;;
13303;SDS011;6720;51.958;4.540;2023-07-20T03:13:42;8.83;;;7.07;;
13303;SDS011;6720;51.958;4.540;2023-07-20T03:16:10;8.10;;;7.30;;
13303;SDS011;6720;51.958;4.540;2023-07-20T03:18:43;7.73;;;6.93;;
13303;SDS011;6720;51.958;4.540;2023-07-20T03:21:09;9.97;;;7.20;;
13303;SDS011;6720;51.958;4.540;2023-07-20T03:23:41;8.93;;;7.67;;
13303;SDS011;6720;51.958;4.540;2023-07-20T03:26:07;9.47;;;7.33;;
13303;SDS011;6720;51.958;4.540;2023-07-20T03:28:33;9.13;;;7.60;;
13303;SDS011;6720;51.958;4.540;2023-07-20T03:31:03;7.83;;;7.07;;
13303;SDS011;6720;51.958;4.540;2023-07-20T03:33:29;13.03;;;10.23;;
13303;SDS011;6720;51.958;4.540;2023-07-20T03:35:56;13.60;;;10.13;;
13303;SDS011;6720;51.958;4.540;2023-07-20T03:38:22;10.97;;;9.37;;
13303;SDS011;6720;51.958;4.540;2023-07-20T03:40:51;9.27;;;7.97;;
13303;SDS011;6720;51.958;4.540;2023-07-20T03:43:18;8.80;;;7.90;;
13303;SDS011;6720;51.958;4.540;2023-07-20T03:45:44;10.67;;;8.80;;
13303;SDS011;6720;51.958;4.540;2023-07-20T03:48:10;11.17;;;9.20;;
13303;SDS011;6720;51.958;4.540;2023-07-20T03:50:36;9.97;;;8.50;;
13303;SDS011;6720;51.958;4.540;2023-07-20T03:53:02;14.07;;;9.50;;
13303;SDS011;6720;51.958;4.540;2023-07-20T03:55:27;16.27;;;13.67;;
13303;SDS011;6720;51.958;4.540;2023-07-20T03:57:53;14.13;;;12.20;;
13303;SDS011;6720;51.958;4.540;2023-07-20T04:00:18;10.30;;;9.30;;
13303;SDS011;6720;51.958;4.540;2023-07-20T04:02:46;10.43;;;7.13;;
13303;SDS011;6720;51.958;4.540;2023-07-20T04:05:11;8.67;;;7.57;;
13303;SDS011;6720;51.958;4.540;2023-07-20T04:07:37;12.40;;;7.33;;
13303;SDS011;6720;51.958;4.540;2023-07-20T04:10:02;9.03;;;7.90;;
13303;SDS011;6720;51.958;4.540;2023-07-20T04:12:28;8.63;;;7.73;;
13303;SDS011;6720;51.958;4.540;2023-07-20T04:14:53;9.53;;;8.33;;
13303;SDS011;6720;51.958;4.540;2023-07-20T04:17:18;10.00;;;8.43;;
13303;SDS011;6720;51.958;4.540;2023-07-20T04:19:44;12.23;;;9.20;;
13303;SDS011;6720;51.958;4.540;2023-07-20T04:22:09;11.43;;;9.57;;
13303;SDS011;6720;51.958;4.540;2023-07-20T04:24:35;11.20;;;9.40;;
13303;SDS011;6720;51.958;4.540;2023-07-20T04:27:00;13.53;;;8.77;;
13303;SDS011;6720;51.958;4.540;2023-07-20T04:29:26;11.23;;;9.33;;
13303;SDS011;6720;51.958;4.540;2023-07-20T04:31:51;11.67;;;9.30;;
13303;SDS011;6720;51.958;4.540;2023-07-20T04:34:18;14.60;;;11.00;;
13303;SDS011;6720;51.958;4.540;2023-07-20T04:36:44;10.37;;;8.67;;
13303;SDS011;6720;51.958;4.540;2023-07-20T04:39:09;13.30;;;9.43;;
13303;SDS011;6720;51.958;4.540;2023-07-20T04:41:35;10.20;;;8.67;;
13303;SDS011;6720;51.958;4.540;2023-07-20T04:44:00;10.80;;;9.70;;
13303;SDS011;6720;51.958;4.540;2023-07-20T04:46:26;26.20;;;20.83;;
13303;SDS011;6720;51.958;4.540;2023-07-20T04:48:51;13.27;;;10.50;;
13303;SDS011;6720;51.958;4.540;2023-07-20T04:51:16;19.63;;;13.97;;
13303;SDS011;6720;51.958;4.540;2023-07-20T04:53:45;10.40;;;8.90;;
13303;SDS011;6720;51.958;4.540;2023-07-20T04:56:12;8.43;;;7.53;;
13303;SDS011;6720;51.958;4.540;2023-07-20T04:58:37;14.13;;;11.23;;
13303;SDS011;6720;51.958;4.540;2023-07-20T05:01:02;12.10;;;10.80;;
13303;SDS011;6720;51.958;4.540;2023-07-20T05:03:28;15.13;;;11.83;;
13303;SDS011;6720;51.958;4.540;2023-07-20T05:05:54;9.43;;;8.33;;
13303;SDS011;6720;51.958;4.540;2023-07-20T05:08:20;8.60;;;7.80;;
13303;SDS011;6720;51.958;4.540;2023-07-20T05:10:47;10.03;;;8.30;;
13303;SDS011;6720;51.958;4.540;2023-07-20T05:13:13;8.10;;;7.30;;
13303;SDS011;6720;51.958;4.540;2023-07-20T05:15:38;12.17;;;7.73;;
13303;SDS011;6720;51.958;4.540;2023-07-20T05:18:04;10.40;;;9.30;;
13303;SDS011;6720;51.958;4.540;2023-07-20T05:20:29;16.83;;;13.40;;
13303;SDS011;6720;51.958;4.540;2023-07-20T05:22:56;16.67;;;13.47;;
13303;SDS011;6720;51.958;4.540;2023-07-20T05:25:22;17.67;;;11.90;;
13303;SDS011;6720;51.958;4.540;2023-07-20T05:27:47;15.07;;;12.13;;
13303;SDS011;6720;51.958;4.540;2023-07-20T05:30:16;11.60;;;8.70;;
13303;SDS011;6720;51.958;4.540;2023-07-20T05:32:42;10.23;;;9.10;;
13303;SDS011;6720;51.958;4.540;2023-07-20T05:35:07;13.33;;;10.33;;
13303;SDS011;6720;51.958;4.540;2023-07-20T05:37:34;14.13;;;10.37;;
13303;SDS011;6720;51.958;4.540;2023-07-20T05:39:59;13.40;;;10.53;;
13303;SDS011;6720;51.958;4.540;2023-07-20T05:42:24;26.87;;;21.07;;
13303;SDS011;6720;51.958;4.540;2023-07-20T05:44:50;10.27;;;8.50;;
13303;SDS011;6720;51.958;4.540;2023-07-20T05:47:17;9.03;;;7.63;;
13303;SDS011;6720;51.958;4.540;2023-07-20T05:49:43;9.27;;;7.97;;
13303;SDS011;6720;51.958;4.540;2023-07-20T05:52:08;9.50;;;8.30;;
13303;SDS011;6720;51.958;4.540;2023-07-20T05:54:34;9.47;;;7.50;;
13303;SDS011;6720;51.958;4.540;2023-07-20T05:56:59;13.87;;;9.33;;
13303;SDS011;6720;51.958;4.540;2023-07-20T05:59:26;7.33;;;5.77;;
13303;SDS011;6720;51.958;4.540;2023-07-20T06:01:54;7.50;;;5.57;;
13303;SDS011;6720;51.958;4.540;2023-07-20T06:04:20;7.23;;;6.53;;
13303;SDS011;6720;51.958;4.540;2023-07-20T06:06:45;8.47;;;6.73;;
13303;SDS011;6720;51.958;4.540;2023-07-20T06:09:11;9.33;;;7.57;;
13303;SDS011;6720;51.958;4.540;2023-07-20T06:11:37;8.10;;;7.30;;
13303;SDS011;6720;51.958;4.540;2023-07-20T06:14:03;9.30;;;7.67;;
13303;SDS011;6720;51.958;4.540;2023-07-20T06:16:29;7.93;;;7.13;;
13303;SDS011;6720;51.958;4.540;2023-07-20T06:18:55;7.27;;;6.27;;
13303;SDS011;6720;51.958;4.540;2023-07-20T06:21:20;9.67;;;8.67;;
13303;SDS011;6720;51.958;4.540;2023-07-20T06:23:46;7.43;;;6.63;;
13303;SDS011;6720;51.958;4.540;2023-07-20T06:26:11;8.93;;;8.10;;
13303;SDS011;6720;51.958;4.540;2023-07-20T06:28:36;15.23;;;13.03;;
13303;SDS011;6720;51.958;4.540;2023-07-20T06:31:02;6.23;;;5.40;;
13303;SDS011;6720;51.958;4.540;2023-07-20T06:33:28;5.73;;;5.23;;
13303;SDS011;6720;51.958;4.540;2023-07-20T06:35:54;5.00;;;4.60;;
13303;SDS011;6720;51.958;4.540;2023-07-20T06:38:19;5.13;;;4.60;;
13303;SDS011;6720;51.958;4.540;2023-07-20T06:40:46;6.80;;;5.23;;
13303;SDS011;6720;51.958;4.540;2023-07-20T06:43:12;5.53;;;5.00;;
13303;SDS011;6720;51.958;4.540;2023-07-20T06:45:37;15.27;;;13.40;;
13303;SDS011;6720;51.958;4.540;2023-07-20T06:48:02;3.03;;;2.57;;
13303;SDS011;6720;51.958;4.540;2023-07-20T06:50:28;3.50;;;3.20;;
13303;SDS011;6720;51.958;4.540;2023-07-20T06:52:54;3.63;;;3.33;;
13303;SDS011;6720;51.958;4.540;2023-07-20T06:55:20;9.33;;;7.77;;
13303;SDS011;6720;51.958;4.540;2023-07-20T06:57:46;4.80;;;4.27;;
13303;SDS011;6720;51.958;4.540;2023-07-20T07:00:12;3.40;;;3.10;;
13303;SDS011;6720;51.958;4.540;2023-07-20T07:02:38;8.00;;;6.70;;
13303;SDS011;6720;51.958;4.540;2023-07-20T07:05:04;6.70;;;5.77;;
13303;SDS011;6720;51.958;4.540;2023-07-20T07:07:30;4.37;;;3.97;;
13303;SDS011;6720;51.958;4.540;2023-07-20T07:09:55;5.47;;;3.80;;
13303;SDS011;6720;51.958;4.540;2023-07-20T07:12:22;3.73;;;3.00;;
13303;SDS011;6720;51.958;4.540;2023-07-20T07:14:50;11.07;;;8.53;;
13303;SDS011;6720;51.958;4.540;2023-07-20T07:17:17;3.60;;;3.30;;
13303;SDS011;6720;51.958;4.540;2023-07-20T07:19:43;5.63;;;2.60;;
13303;SDS011;6720;51.958;4.540;2023-07-20T07:22:09;3.60;;;3.03;;
13303;SDS011;6720;51.958;4.540;2023-07-20T07:24:35;10.63;;;9.47;;
13303;SDS011;6720;51.958;4.540;2023-07-20T07:27:01;7.50;;;5.03;;
13303;SDS011;6720;51.958;4.540;2023-07-20T07:29:27;3.40;;;3.10;;
13303;SDS011;6720;51.958;4.540;2023-07-20T07:31:53;6.30;;;4.73;;
13303;SDS011;6720;51.958;4.540;2023-07-20T07:34:18;4.37;;;3.67;;
13303;SDS011;6720;51.958;4.540;2023-07-20T07:36:44;6.83;;;5.43;;
13303;SDS011;6720;51.958;4.540;2023-07-20T07:39:10;3.63;;;3.23;;
13303;SDS011;6720;51.958;4.540;2023-07-20T07:41:37;5.83;;;4.60;;
13303;SDS011;6720;51.958;4.540;2023-07-20T07:44:02;4.20;;;3.43;;
13303;SDS011;6720;51.958;4.540;2023-07-20T07:46:28;7.47;;;5.80;;
13303;SDS011;6720;51.958;4.540;2023-07-20T07:48:53;4.50;;;3.13;;
13303;SDS011;6720;51.958;4.540;2023-07-20T07:51:19;5.43;;;2.97;;
13303;SDS011;6720;51.958;4.540;2023-07-20T07:53:47;4.27;;;3.47;;
13303;SDS011;6720;51.958;4.540;2023-07-20T07:56:14;3.07;;;2.53;;
13303;SDS011;6720;51.958;4.540;2023-07-20T07:58:39;3.47;;;2.23;;
13303;SDS011;6720;51.958;4.540;2023-07-20T08:01:05;3.77;;;2.80;;
13303;SDS011;6720;51.958;4.540;2023-07-20T08:03:31;4.17;;;2.20;;
13303;SDS011;6720;51.958;4.540;2023-07-20T08:05:56;2.43;;;2.20;;
13303;SDS011;6720;51.958;4.540;2023-07-20T08:08:22;1.97;;;1.83;;
13303;SDS011;6720;51.958;4.540;2023-07-20T08:10:48;8.80;;;6.93;;
13303;SDS011;6720;51.958;4.540;2023-07-20T08:13:13;7.70;;;5.80;;
13303;SDS011;6720;51.958;4.540;2023-07-20T08:15:39;33.93;;;22.33;;
13303;SDS011;6720;51.958;4.540;2023-07-20T08:18:07;46.67;;;35.07;;
13303;SDS011;6720;51.958;4.540;2023-07-20T08:20:33;13.50;;;8.97;;
13303;SDS011;6720;51.958;4.540;2023-07-20T08:23:00;24.60;;;19.47;;
13303;SDS011;6720;51.958;4.540;2023-07-20T08:25:26;14.80;;;11.47;;
13303;SDS011;6720;51.958;4.540;2023-07-20T08:27:51;27.47;;;21.03;;
13303;SDS011;6720;51.958;4.540;2023-07-20T08:30:17;3.87;;;3.50;;
13303;SDS011;6720;51.958;4.540;2023-07-20T08:32:43;34.00;;;27.80;;
13303;SDS011;6720;51.958;4.540;2023-07-20T08:35:08;3.10;;;2.80;;
13303;SDS011;6720;51.958;4.540;2023-07-20T08:37:34;3.63;;;2.77;;
13303;SDS011;6720;51.958;4.540;2023-07-20T08:39:59;2.77;;;2.53;;
13303;SDS011;6720;51.958;4.540;2023-07-20T08:42:26;4.83;;;2.87;;
13303;SDS011;6720;51.958;4.540;2023-07-20T08:44:52;5.33;;;3.00;;
13303;SDS011;6720;51.958;4.540;2023-07-20T08:47:18;9.37;;;8.43;;
13303;SDS011;6720;51.958;4.540;2023-07-20T08:49:44;4.83;;;3.93;;
13303;SDS011;6720;51.958;4.540;2023-07-20T08:52:13;7.10;;;4.57;;
13303;SDS011;6720;51.958;4.540;2023-07-20T08:54:39;7.57;;;6.37;;
13303;SDS011;6720;51.958;4.540;2023-07-20T08:57:09;6.23;;;5.33;;
13303;SDS011;6720;51.958;4.540;2023-07-20T09:00:11;3.83;;;3.50;;
13303;SDS011;6720;51.958;4.540;2023-07-20T09:02:39;39.07;;;33.77;;
13303;SDS011;6720;51.958;4.540;2023-07-20T09:05:08;12.13;;;10.80;;
13303;SDS011;6720;51.958;4.540;2023-07-20T09:07:43;5.67;;;4.90;;
13303;SDS011;6720;51.958;4.540;2023-07-20T09:10:09;3.97;;;3.43;;
13303;SDS011;6720;51.958;4.540;2023-07-20T09:12:39;10.20;;;7.40;;
13303;SDS011;6720;51.958;4.540;2023-07-20T09:15:07;5.00;;;3.87;;
13303;SDS011;6720;51.958;4.540;2023-07-20T09:17:33;4.37;;;3.73;;
13303;SDS011;6720;51.958;4.540;2023-07-20T09:20:05;4.43;;;4.03;;
13303;SDS011;6720;51.958;4.540;2023-07-20T09:22:36;6.30;;;5.67;;
13303;SDS011;6720;51.958;4.540;2023-07-20T09:25:08;4.27;;;3.23;;
13303;SDS011;6720;51.958;4.540;2023-07-20T09:27:38;7.47;;;4.97;;
13303;SDS011;6720;51.958;4.540;2023-07-20T09:30:06;13.10;;;10.90;;
13303;SDS011;6720;51.958;4.540;2023-07-20T09:32:38;6.27;;;5.63;;
13303;SDS011;6720;51.958;4.540;2023-07-20T09:35:12;6.10;;;5.50;;
13303;SDS011;6720;51.958;4.540;2023-07-20T09:37:38;2.17;;;1.70;;
13303;SDS011;6720;51.958;4.540;2023-07-20T09:40:05;4.53;;;4.07;;
13303;SDS011;6720;51.958;4.540;2023-07-20T09:42:32;4.20;;;3.27;;
13303;SDS011;6720;51.958;4.540;2023-07-20T09:45:00;4.17;;;3.77;;
13303;SDS011;6720;51.958;4.540;2023-07-20T09:47:25;2.30;;;2.00;;
13303;SDS011;6720;51.958;4.540;2023-07-20T09:49:57;8.63;;;7.47;;
13303;SDS011;6720;51.958;4.540;2023-07-20T09:52:25;6.73;;;4.27;;
13303;SDS011;6720;51.958;4.540;2023-07-20T09:54:50;5.57;;;5.00;;
13303;SDS011;6720;51.958;4.540;2023-07-20T09:57:16;3.47;;;2.13;;
13303;SDS011;6720;51.958;4.540;2023-07-20T09:59:43;2.80;;;2.30;;
13303;SDS011;6720;51.958;4.540;2023-07-20T10:02:11;3.67;;;1.77;;
13303;SDS011;6720;51.958;4.540;2023-07-20T10:04:51;2.67;;;1.70;;
13303;SDS011;6720;51.958;4.540;2023-07-20T10:07:18;1.70;;;1.60;;
13303;SDS011;6720;51.958;4.540;2023-07-20T10:09:48;2.23;;;1.80;;
13303;SDS011;6720;51.958;4.540;2023-07-20T10:12:15;5.37;;;4.53;;
13303;SDS011;6720;51.958;4.540;2023-07-20T10:14:44;2.90;;;2.30;;
13303;SDS011;6720;51.958;4.540;2023-07-20T10:17:18;3.53;;;2.10;;
13303;SDS011;6720;51.958;4.540;2023-07-20T10:19:44;3.27;;;2.70;;
13303;SDS011;6720;51.958;4.540;2023-07-20T10:22:17;2.63;;;2.43;;
13303;SDS011;6720;51.958;4.540;2023-07-20T10:24:46;3.83;;;3.13;;
13303;SDS011;6720;51.958;4.540;2023-07-20T10:27:13;2.60;;;2.30;;
13303;SDS011;6720;51.958;4.540;2023-07-20T10:29:40;4.27;;;3.23;;
13303;SDS011;6720;51.958;4.540;2023-07-20T10:32:06;5.40;;;4.73;;
13303;SDS011;6720;51.958;4.540;2023-07-20T10:34:33;3.17;;;1.90;;
13303;SDS011;6720;51.958;4.540;2023-07-20T10:36:59;2.83;;;2.27;;
13303;SDS011;6720;51.958;4.540;2023-07-20T10:39:25;2.30;;;2.10;;
13303;SDS011;6720;51.958;4.540;2023-07-20T10:41:59;3.57;;;2.73;;
13303;SDS011;6720;51.958;4.540;2023-07-20T10:44:32;3.30;;;3.00;;
13303;SDS011;6720;51.958;4.540;2023-07-20T10:47:02;3.50;;;2.07;;
13303;SDS011;6720;51.958;4.540;2023-07-20T10:49:32;2.60;;;2.10;;
13303;SDS011;6720;51.958;4.540;2023-07-20T10:51:59;3.23;;;2.70;;
13303;SDS011;6720;51.958;4.540;2023-07-20T10:56:55;2.43;;;2.00;;
13303;SDS011;6720;51.958;4.540;2023-07-20T11:01:54;2.63;;;2.23;;
13303;SDS011;6720;51.958;4.540;2023-07-20T11:04:37;3.60;;;2.07;;
13303;SDS011;6720;51.958;4.540;2023-07-20T11:07:04;4.90;;;3.57;;
13303;SDS011;6720;51.958;4.540;2023-07-20T11:09:33;9.87;;;8.87;;
13303;SDS011;6720;51.958;4.540;2023-07-20T11:12:13;2.63;;;2.10;;
13303;SDS011;6720;51.958;4.540;2023-07-20T11:14:40;2.03;;;1.90;;
13303;SDS011;6720;51.958;4.540;2023-07-20T11:17:13;3.00;;;2.33;;
13303;SDS011;6720;51.958;4.540;2023-07-20T11:19:41;2.23;;;2.03;;
13303;SDS011;6720;51.958;4.540;2023-07-20T11:22:07;6.43;;;5.60;;
13303;SDS011;6720;51.958;4.540;2023-07-20T11:24:33;2.73;;;2.40;;
13303;SDS011;6720;51.958;4.540;2023-07-20T11:26:58;3.20;;;2.37;;
13303;SDS011;6720;51.958;4.540;2023-07-20T11:29:26;2.43;;;2.23;;
13303;SDS011;6720;51.958;4.540;2023-07-20T11:31:51;3.83;;;2.60;;
13303;SDS011;6720;51.958;4.540;2023-07-20T11:34:17;2.90;;;2.70;;
13303;SDS011;6720;51.958;4.540;2023-07-20T11:36:46;3.97;;;2.80;;
13303;SDS011;6720;51.958;4.540;2023-07-20T11:39:13;2.00;;;1.73;;
13303;SDS011;6720;51.958;4.540;2023-07-20T11:41:43;3.23;;;2.93;;
13303;SDS011;6720;51.958;4.540;2023-07-20T11:44:09;2.53;;;2.17;;
13303;SDS011;6720;51.958;4.540;2023-07-20T11:46:38;3.80;;;1.77;;
13303;SDS011;6720;51.958;4.540;2023-07-20T11:49:04;2.97;;;1.80;;
13303;SDS011;6720;51.958;4.540;2023-07-20T11:51:29;2.23;;;2.07;;
13303;SDS011;6720;51.958;4.540;2023-07-20T11:53:56;2.53;;;2.07;;
13303;SDS011;6720;51.958;4.540;2023-07-20T11:56:25;2.20;;;2.00;;
13303;SDS011;6720;51.958;4.540;2023-07-20T11:58:54;3.83;;;3.03;;
13303;SDS011;6720;51.958;4.540;2023-07-20T12:01:23;6.27;;;2.03;;
13303;SDS011;6720;51.958;4.540;2023-07-20T12:03:48;4.10;;;2.10;;
13303;SDS011;6720;51.958;4.540;2023-07-20T12:06:15;2.77;;;2.13;;
13303;SDS011;6720;51.958;4.540;2023-07-20T12:08:44;2.27;;;1.80;;
13303;SDS011;6720;51.958;4.540;2023-07-20T12:11:10;2.57;;;2.17;;
13303;SDS011;6720;51.958;4.540;2023-07-20T12:13:39;2.97;;;1.67;;
13303;SDS011;6720;51.958;4.540;2023-07-20T12:16:11;2.10;;;1.90;;
13303;SDS011;6720;51.958;4.540;2023-07-20T12:18:40;1.90;;;1.70;;
13303;SDS011;6720;51.958;4.540;2023-07-20T12:21:07;2.80;;;2.60;;
13303;SDS011;6720;51.958;4.540;2023-07-20T12:23:37;2.23;;;1.80;;
13303;SDS011;6720;51.958;4.540;2023-07-20T12:26:09;2.33;;;1.50;;
13303;SDS011;6720;51.958;4.540;2023-07-20T12:28:38;2.27;;;1.90;;
13303;SDS011;6720;51.958;4.540;2023-07-20T12:31:05;5.20;;;2.67;;
13303;SDS011;6720;51.958;4.540;2023-07-20T12:33:31;3.10;;;2.53;;
13303;SDS011;6720;51.958;4.540;2023-07-20T12:35:57;3.63;;;2.60;;
13303;SDS011;6720;51.958;4.540;2023-07-20T12:38:24;3.40;;;2.50;;
13303;SDS011;6720;51.958;4.540;2023-07-20T12:40:50;2.70;;;2.17;;
13303;SDS011;6720;51.958;4.540;2023-07-20T12:43:16;2.87;;;2.27;;
13303;SDS011;6720;51.958;4.540;2023-07-20T12:45:41;4.53;;;3.60;;
13303;SDS011;6720;51.958;4.540;2023-07-20T12:48:08;4.03;;;3.63;;
13303;SDS011;6720;51.958;4.540;2023-07-20T12:50:33;3.13;;;2.80;;
13303;SDS011;6720;51.958;4.540;2023-07-20T12:53:00;1.70;;;1.60;;
13303;SDS011;6720;51.958;4.540;2023-07-20T12:55:25;2.17;;;1.80;;
13303;SDS011;6720;51.958;4.540;2023-07-20T12:57:50;2.10;;;1.80;;
13303;SDS011;6720;51.958;4.540;2023-07-20T13:00:17;2.90;;;1.53;;
13303;SDS011;6720;51.958;4.540;2023-07-20T13:02:43;2.07;;;1.80;;
13303;SDS011;6720;51.958;4.540;2023-07-20T13:05:08;2.53;;;1.80;;
13303;SDS011;6720;51.958;4.540;2023-07-20T13:07:35;1.80;;;1.70;;
13303;SDS011;6720;51.958;4.540;2023-07-20T13:10:03;2.20;;;1.70;;
13303;SDS011;6720;51.958;4.540;2023-07-20T13:12:32;2.07;;;1.50;;
13303;SDS011;6720;51.958;4.540;2023-07-20T13:15:00;2.17;;;1.67;;
13303;SDS011;6720;51.958;4.540;2023-07-20T13:17:31;1.50;;;1.40;;
13303;SDS011;6720;51.958;4.540;2023-07-20T13:19:57;1.57;;;1.33;;
13303;SDS011;6720;51.958;4.540;2023-07-20T13:22:23;3.93;;;1.63;;
13303;SDS011;6720;51.958;4.540;2023-07-20T13:24:48;2.97;;;1.73;;
13303;SDS011;6720;51.958;4.540;2023-07-20T13:27:17;1.70;;;1.60;;
13303;SDS011;6720;51.958;4.540;2023-07-20T13:29:43;1.70;;;1.60;;
13303;SDS011;6720;51.958;4.540;2023-07-20T13:32:08;1.73;;;1.63;;
13303;SDS011;6720;51.958;4.540;2023-07-20T13:34:34;2.20;;;1.50;;
13303;SDS011;6720;51.958;4.540;2023-07-20T13:37:00;1.70;;;1.53;;
13303;SDS011;6720;51.958;4.540;2023-07-20T13:39:25;1.67;;;1.50;;
13303;SDS011;6720;51.958;4.540;2023-07-20T13:41:52;1.93;;;1.50;;
13303;SDS011;6720;51.958;4.540;2023-07-20T13:44:18;1.60;;;1.40;;
13303;SDS011;6720;51.958;4.540;2023-07-20T13:46:45;1.77;;;1.50;;
13303;SDS011;6720;51.958;4.540;2023-07-20T13:49:10;1.80;;;1.50;;
13303;SDS011;6720;51.958;4.540;2023-07-20T13:51:36;2.30;;;1.37;;
13303;SDS011;6720;51.958;4.540;2023-07-20T13:54:01;1.90;;;1.30;;
13303;SDS011;6720;51.958;4.540;2023-07-20T13:56:27;1.70;;;1.60;;
13303;SDS011;6720;51.958;4.540;2023-07-20T13:58:52;3.30;;;1.60;;
13303;SDS011;6720;51.958;4.540;2023-07-20T14:01:18;1.70;;;1.60;;
13303;SDS011;6720;51.958;4.540;2023-07-20T14:03:44;1.67;;;1.57;;
13303;SDS011;6720;51.958;4.540;2023-07-20T14:06:09;2.10;;;1.50;;
13303;SDS011;6720;51.958;4.540;2023-07-20T14:08:36;1.60;;;1.50;;
13303;SDS011;6720;51.958;4.540;2023-07-20T14:11:02;2.23;;;1.50;;
13303;SDS011;6720;51.958;4.540;2023-07-20T14:13:27;2.20;;;1.60;;
13303;SDS011;6720;51.958;4.540;2023-07-20T14:15:52;2.93;;;1.80;;
13303;SDS011;6720;51.958;4.540;2023-07-20T14:18:18;1.50;;;1.40;;
13303;SDS011;6720;51.958;4.540;2023-07-20T14:20:43;1.40;;;1.30;;
13303;SDS011;6720;51.958;4.540;2023-07-20T14:23:09;1.83;;;1.30;;
13303;SDS011;6720;51.958;4.540;2023-07-20T14:25:35;1.93;;;1.40;;
13303;SDS011;6720;51.958;4.540;2023-07-20T14:28:00;1.83;;;1.40;;
13303;SDS011;6720;51.958;4.540;2023-07-20T14:30:26;2.07;;;1.47;;
13303;SDS011;6720;51.958;4.540;2023-07-20T14:32:51;2.13;;;1.50;;
13303;SDS011;6720;51.958;4.540;2023-07-20T14:35:17;1.30;;;1.23;;
13303;SDS011;6720;51.958;4.540;2023-07-20T14:37:42;1.43;;;1.20;;
13303;SDS011;6720;51.958;4.540;2023-07-20T14:40:11;1.40;;;1.30;;
13303;SDS011;6720;51.958;4.540;2023-07-20T14:42:38;1.67;;;1.20;;
13303;SDS011;6720;51.958;4.540;2023-07-20T14:45:03;1.37;;;1.27;;
13303;SDS011;6720;51.958;4.540;2023-07-20T14:47:30;1.50;;;1.40;;
13303;SDS011;6720;51.958;4.540;2023-07-20T14:50:00;2.70;;;1.37;;
13303;SDS011;6720;51.958;4.540;2023-07-20T14:52:27;1.87;;;1.40;;
13303;SDS011;6720;51.958;4.540;2023-07-20T14:54:53;1.57;;;1.40;;
13303;SDS011;6720;51.958;4.540;2023-07-20T14:57:19;1.37;;;1.27;;
13303;SDS011;6720;51.958;4.540;2023-07-20T14:59:45;1.47;;;1.30;;
13303;SDS011;6720;51.958;4.540;2023-07-20T15:02:11;3.00;;;1.30;;
13303;SDS011;6720;51.958;4.540;2023-07-20T15:04:37;2.53;;;1.47;;